Terminal Aerodrome Forecast
Issued by NWS

Current Version | Previous Version | Graphics & Text | Print | Product List | Glossary On
Versions: 1 2 3 4 5 6 7 8 9 10 11 12 13 14 15 16 17 18
325
FTUS41 KILN 082122 AAA
TAFLCK
TAF AMD
KLCK 082122Z 0821/0918 28005KT P6SM BKN022 OVC050
     FM082200 27005KT P6SM SCT025 OVC050
      TEMPO 0822/0901 3SM -SN BKN025
     FM090100 29006KT P6SM -SN BKN015 OVC025
     FM090600 30009KT P6SM -SN OVC012
     FM091200 28011G19KT 3SM -SN OVC015=

USA.gov is the U.S. government's official web portal to all federal, state and local government web resources and services.